Time;durP1;ratioP1;P1;durP2;ratioP2;P2;SDS_P1;SDS_P2;PMS_P1;PMS_P2;Temp;Humidity;BMP_temperature;BMP_pressure;BME280_temperature;BME280_humidity;BME280_pressure;Samples;Min_cycle;Max_cycle;Signal;HPM_P1;HPM_P2
2021/08/30 00:02:55;;;;;;;0.70;0.70;;;13.10;99.90;;;;;;6293119;28;20205;-79
2021/08/30 00:05:58;;;;;;;0.80;0.80;;;13.10;99.90;;;;;;6291530;28;20215;-79
2021/08/30 00:09:00;;;;;;;1.40;0.77;;;13.10;99.90;;;;;;6298989;28;20198;-79
2021/08/30 00:12:03;;;;;;;1.10;1.00;;;13.10;99.90;;;;;;6267322;28;20201;-79
2021/08/30 00:15:07;;;;;;;0.70;0.70;;;13.10;99.90;;;;;;6306744;28;20188;-80
2021/08/30 00:18:09;;;;;;;0.90;0.90;;;13.00;99.90;;;;;;6312304;28;20559;-79
2021/08/30 00:21:12;;;;;;;1.07;0.97;;;13.00;99.90;;;;;;6298985;28;20247;-78
2021/08/30 00:24:14;;;;;;;0.90;0.90;;;13.00;99.90;;;;;;6265459;28;20187;-79
2021/08/30 00:27:17;;;;;;;0.70;0.70;;;13.00;99.90;;;;;;6286818;28;20200;-80
2021/08/30 00:30:19;;;;;;;0.70;0.70;;;13.00;99.90;;;;;;6297874;28;20230;-79
2021/08/30 00:33:21;;;;;;;1.67;0.90;;;13.00;99.90;;;;;;6288121;28;20245;-78
2021/08/30 00:36:25;;;;;;;2.23;0.70;;;13.00;99.90;;;;;;6292875;28;20179;-79
2021/08/30 00:39:29;;;;;;;1.10;0.53;;;13.00;99.90;;;;;;6291032;28;20190;-78
2021/08/30 00:42:31;;;;;;;1.40;0.80;;;13.00;99.90;;;;;;6297342;28;20198;-79
2021/08/30 00:45:34;;;;;;;0.80;0.80;;;13.00;99.90;;;;;;6295451;28;20236;-78
2021/08/30 00:48:36;;;;;;;1.07;0.93;;;13.00;99.90;;;;;;6293141;28;20202;-79
2021/08/30 00:51:38;;;;;;;1.57;0.83;;;13.00;99.90;;;;;;6289988;28;20217;-78
2021/08/30 00:54:41;;;;;;;0.70;0.70;;;13.00;99.90;;;;;;6270353;28;20212;-78
2021/08/30 00:57:43;;;;;;;0.77;0.77;;;13.00;99.90;;;;;;6296380;28;20179;-80
2021/08/30 01:00:46;;;;;;;0.60;0.60;;;13.00;99.90;;;;;;6276179;28;20265;-79
2021/08/30 01:03:51;;;;;;;0.60;0.60;;;13.00;99.90;;;;;;6274958;28;20609;-78
2021/08/30 01:07:02;;;;;;;0.70;0.70;;;13.00;99.90;;;;;;6292943;28;20207;-79
2021/08/30 01:10:14;;;;;;;0.83;0.67;;;13.00;99.90;;;;;;6259506;28;20192;-79
2021/08/30 01:13:31;;;;;;;0.70;0.70;;;12.90;99.90;;;;;;6279364;28;20198;-79
2021/08/30 01:16:34;;;;;;;0.63;0.63;;;12.90;99.90;;;;;;6270144;28;20199;-79
2021/08/30 01:19:46;;;;;;;0.53;0.53;;;12.90;99.90;;;;;;6275771;28;20193;-79
2021/08/30 01:22:50;;;;;;;1.07;0.60;;;13.00;99.90;;;;;;6281637;28;20236;-80
2021/08/30 01:25:53;;;;;;;1.23;0.60;;;13.00;99.90;;;;;;6292185;28;20210;-79
2021/08/30 01:29:17;;;;;;;0.70;0.60;;;12.90;99.90;;;;;;6275184;28;20597;-79
2021/08/30 01:32:38;;;;;;;0.60;0.60;;;12.90;99.90;;;;;;6295263;28;20255;-79
2021/08/30 01:35:41;;;;;;;0.67;0.67;;;12.90;99.90;;;;;;6246045;28;20176;-79
2021/08/30 01:38:45;;;;;;;0.80;0.80;;;12.90;99.90;;;;;;6260230;28;20196;-79
2021/08/30 01:41:48;;;;;;;0.70;0.70;;;12.90;99.90;;;;;;6280877;28;20184;-79
2021/08/30 01:44:51;;;;;;;0.93;0.70;;;12.90;99.90;;;;;;6288460;28;20226;-79
2021/08/30 01:47:57;;;;;;;0.70;0.70;;;12.90;99.90;;;;;;6290584;28;20221;-79
2021/08/30 01:51:00;;;;;;;0.60;0.60;;;12.90;99.90;;;;;;6293366;28;20210;-79
2021/08/30 01:54:02;;;;;;;0.63;0.63;;;12.90;99.90;;;;;;6291253;28;20210;-79
2021/08/30 01:57:05;;;;;;;0.97;0.70;;;12.90;99.90;;;;;;6273872;28;20247;-78
2021/08/30 02:03:30;;;;;;;0.67;0.67;;;12.90;99.90;;;;;;6290863;28;20203;-79
2021/08/30 02:06:34;;;;;;;0.70;0.50;;;12.80;99.90;;;;;;6292446;28;20206;-79
2021/08/30 02:09:36;;;;;;;0.87;0.87;;;12.80;99.90;;;;;;6274998;28;20594;-79
2021/08/30 02:12:39;;;;;;;0.70;0.70;;;12.80;99.90;;;;;;6296414;28;20197;-79
2021/08/30 02:15:43;;;;;;;0.83;0.70;;;12.80;99.90;;;;;;6277859;28;20227;-79
2021/08/30 02:19:02;;;;;;;0.93;0.70;;;12.80;99.90;;;;;;6306113;28;20576;-79
2021/08/30 02:22:10;;;;;;;0.77;0.77;;;12.70;99.90;;;;;;6298350;28;20689;-79
2021/08/30 02:25:17;;;;;;;1.00;0.90;;;12.70;99.90;;;;;;6294184;28;20217;-79
2021/08/30 02:28:22;;;;;;;0.60;0.60;;;12.70;99.90;;;;;;6293438;28;20197;-79
2021/08/30 02:31:26;;;;;;;0.93;0.80;;;12.70;99.90;;;;;;6274198;28;20271;-78
2021/08/30 02:34:32;;;;;;;1.87;1.13;;;12.70;99.90;;;;;;6279895;28;20190;-79
2021/08/30 02:37:39;;;;;;;1.00;0.90;;;12.70;99.90;;;;;;6291039;28;20605;-79
2021/08/30 02:40:42;;;;;;;0.87;0.80;;;12.70;99.90;;;;;;6296810;28;20201;-78
2021/08/30 02:43:46;;;;;;;1.00;0.90;;;12.70;99.90;;;;;;6279660;28;20194;-79
2021/08/30 02:46:48;;;;;;;1.97;0.80;;;12.70;99.90;;;;;;6265230;28;20642;-78
2021/08/30 02:49:52;;;;;;;1.00;1.00;;;12.70;99.90;;;;;;6301834;28;20529;-79
2021/08/30 02:52:57;;;;;;;2.13;1.17;;;12.60;99.90;;;;;;6273937;28;20195;-79
2021/08/30 02:56:00;;;;;;;1.00;1.00;;;12.60;99.90;;;;;;6295964;28;20185;-79
2021/08/30 02:59:03;;;;;;;1.00;0.90;;;12.60;99.90;;;;;;6295961;28;20198;-78
2021/08/30 03:02:07;;;;;;;1.20;1.00;;;12.60;99.90;;;;;;6300645;28;20202;-79
2021/08/30 03:05:11;;;;;;;1.13;0.83;;;12.60;99.90;;;;;;6271580;28;20215;-78
2021/08/30 03:08:15;;;;;;;1.13;0.80;;;12.60;99.90;;;;;;6248930;28;20195;-78
2021/08/30 03:11:18;;;;;;;0.67;0.67;;;12.60;99.90;;;;;;6261838;28;20215;-78
2021/08/30 03:14:23;;;;;;;1.00;0.90;;;12.70;99.90;;;;;;6288769;28;20200;-78
2021/08/30 03:17:25;;;;;;;2.23;0.83;;;12.70;99.90;;;;;;6292350;28;20239;-79
2021/08/30 03:20:29;;;;;;;0.77;0.77;;;12.60;99.90;;;;;;6293603;28;20232;-80
2021/08/30 03:23:35;;;;;;;1.23;0.77;;;12.60;99.90;;;;;;6308197;28;20196;-79
2021/08/30 03:26:39;;;;;;;0.90;0.80;;;12.60;99.90;;;;;;6279113;28;20216;-78
2021/08/30 03:29:42;;;;;;;0.60;0.60;;;12.60;99.90;;;;;;6302276;28;20203;-79
2021/08/30 03:32:46;;;;;;;0.63;0.63;;;12.60;99.90;;;;;;6296501;28;20228;-79
2021/08/30 03:35:50;;;;;;;1.30;0.93;;;12.70;99.90;;;;;;6271701;28;20182;-79
2021/08/30 03:38:52;;;;;;;1.30;1.03;;;12.70;99.90;;;;;;6300767;28;20542;-79
2021/08/30 03:41:57;;;;;;;0.73;0.73;;;12.70;99.90;;;;;;6282328;28;20202;-79
2021/08/30 03:45:00;;;;;;;0.80;0.80;;;12.70;99.90;;;;;;6293839;28;20200;-79
2021/08/30 03:48:03;;;;;;;0.73;0.67;;;12.70;99.90;;;;;;6298517;28;20202;-79
2021/08/30 03:51:08;;;;;;;0.90;0.70;;;12.70;99.90;;;;;;6255969;28;20200;-79
2021/08/30 03:54:11;;;;;;;0.97;0.90;;;12.70;99.90;;;;;;6289316;28;20189;-79
2021/08/30 03:57:14;;;;;;;0.60;0.60;;;12.70;99.90;;;;;;6298933;28;20222;-79
2021/08/30 04:00:17;;;;;;;1.30;1.00;;;12.70;99.90;;;;;;6298934;28;20168;-79
2021/08/30 04:03:21;;;;;;;5.63;0.80;;;12.70;99.90;;;;;;6292387;28;20199;-79
2021/08/30 04:06:25;;;;;;;1.27;0.60;;;12.70;99.90;;;;;;6276376;28;20221;-79
2021/08/30 04:09:28;;;;;;;2.03;0.80;;;12.60;99.90;;;;;;6273842;28;20281;-80
2021/08/30 04:12:31;;;;;;;1.07;0.70;;;12.50;99.90;;;;;;6298485;28;20221;-78
2021/08/30 04:15:34;;;;;;;0.63;0.63;;;12.50;99.90;;;;;;6269462;28;20205;-80
2021/08/30 04:18:36;;;;;;;0.70;0.60;;;12.40;99.90;;;;;;6303768;28;20217;-79
2021/08/30 04:21:38;;;;;;;0.83;0.70;;;12.40;99.90;;;;;;6290106;28;20227;-79
2021/08/30 04:24:41;;;;;;;0.63;0.63;;;12.30;99.90;;;;;;6297774;28;20185;-79
2021/08/30 04:27:43;;;;;;;0.77;0.77;;;12.30;99.90;;;;;;6301202;28;20232;-79
2021/08/30 04:30:45;;;;;;;1.63;0.60;;;12.30;99.90;;;;;;6299075;28;20212;-79
2021/08/30 04:33:48;;;;;;;0.90;0.90;;;12.30;99.90;;;;;;6269625;28;20229;-79
2021/08/30 04:36:51;;;;;;;0.97;0.90;;;12.30;99.90;;;;;;6295598;28;20193;-79
2021/08/30 04:39:53;;;;;;;1.07;0.97;;;12.30;99.90;;;;;;6299431;28;20198;-80
2021/08/30 04:42:56;;;;;;;2.10;0.87;;;12.40;99.90;;;;;;6284489;28;20196;-79
2021/08/30 04:46:03;;;;;;;0.90;0.90;;;12.40;99.90;;;;;;6298220;28;20214;-79
2021/08/30 04:49:05;;;;;;;1.20;1.00;;;12.50;99.90;;;;;;6295644;28;20194;-79
2021/08/30 04:52:07;;;;;;;1.43;0.90;;;12.50;99.90;;;;;;6295137;28;20182;-79
2021/08/30 04:55:11;;;;;;;1.00;0.70;;;12.60;99.90;;;;;;6294753;28;20204;-79
2021/08/30 04:58:13;;;;;;;0.70;0.70;;;12.70;99.90;;;;;;6292473;28;20194;-79
2021/08/30 05:01:15;;;;;;;0.70;0.70;;;12.70;99.90;;;;;;6264676;28;20298;-79
2021/08/30 05:04:18;;;;;;;5.77;0.87;;;12.80;99.90;;;;;;6281583;28;20170;-79
2021/08/30 05:07:21;;;;;;;1.83;0.50;;;12.80;99.90;;;;;;6282074;28;20274;-79
2021/08/30 05:10:23;;;;;;;1.63;0.73;;;12.90;99.90;;;;;;6290991;28;20193;-79
2021/08/30 05:13:27;;;;;;;1.07;0.90;;;12.90;99.90;;;;;;6285394;28;20666;-78
2021/08/30 05:16:29;;;;;;;2.03;0.80;;;13.00;99.90;;;;;;6271957;28;20221;-79
2021/08/30 05:19:32;;;;;;;1.10;0.80;;;13.10;99.90;;;;;;6292551;28;20673;-79
2021/08/30 05:22:34;;;;;;;1.07;0.77;;;13.10;99.90;;;;;;6291146;28;20647;-79
2021/08/30 05:25:36;;;;;;;1.00;0.90;;;13.20;99.90;;;;;;6289826;28;20677;-79
2021/08/30 05:28:39;;;;;;;2.53;0.70;;;13.30;99.90;;;;;;6246151;28;20206;-79
2021/08/30 05:31:42;;;;;;;1.83;0.80;;;13.30;99.90;;;;;;6272632;28;20701;-79
2021/08/30 05:34:45;;;;;;;2.60;0.90;;;13.40;99.90;;;;;;6286746;28;20199;-79
2021/08/30 05:37:47;;;;;;;0.83;0.83;;;13.50;99.90;;;;;;6281674;28;20202;-79
2021/08/30 05:40:49;;;;;;;1.10;0.80;;;13.60;99.90;;;;;;6287727;28;20327;-79
2021/08/30 05:43:51;;;;;;;1.70;0.90;;;13.60;99.90;;;;;;6288263;28;20225;-79
2021/08/30 05:46:54;;;;;;;2.77;1.10;;;13.70;99.90;;;;;;6288667;28;20314;-79
2021/08/30 05:49:56;;;;;;;1.73;0.80;;;13.80;99.90;;;;;;6274202;28;20753;-79
2021/08/30 05:52:59;;;;;;;1.83;1.00;;;13.90;99.90;;;;;;6289818;28;20185;-79
2021/08/30 05:56:01;;;;;;;2.83;0.80;;;13.90;99.90;;;;;;6289789;28;20254;-79
2021/08/30 05:59:03;;;;;;;1.43;0.90;;;14.00;99.90;;;;;;6289441;28;20289;-79
2021/08/30 06:02:05;;;;;;;0.70;0.70;;;14.00;99.90;;;;;;6278690;28;20671;-79
2021/08/30 06:05:09;;;;;;;0.70;0.70;;;14.00;99.90;;;;;;6272729;28;20208;-79
2021/08/30 06:08:11;;;;;;;0.93;0.93;;;14.00;99.90;;;;;;6282437;28;20213;-79
2021/08/30 06:11:13;;;;;;;1.07;1.00;;;14.00;99.90;;;;;;6265222;28;20226;-79
2021/08/30 06:14:16;;;;;;;1.27;1.17;;;14.10;99.90;;;;;;6278485;28;20183;-78
2021/08/30 06:17:18;;;;;;;1.07;0.80;;;14.10;99.90;;;;;;6279582;28;20204;-78
2021/08/30 06:20:22;;;;;;;1.30;1.00;;;14.20;99.90;;;;;;6283839;28;20291;-79
2021/08/30 06:23:24;;;;;;;2.10;1.03;;;14.20;99.90;;;;;;6274411;28;20258;-79
2021/08/30 06:26:27;;;;;;;1.00;1.00;;;14.30;99.90;;;;;;6292660;28;20678;-78
2021/08/30 06:29:32;;;;;;;1.20;1.10;;;14.30;99.90;;;;;;6292584;28;20199;-79
2021/08/30 06:32:35;;;;;;;0.90;0.83;;;14.40;99.90;;;;;;6290088;28;20247;-79
2021/08/30 06:35:42;;;;;;;1.20;1.00;;;14.40;99.90;;;;;;6264067;28;20195;-79
2021/08/30 06:38:44;;;;;;;1.37;1.10;;;14.50;99.90;;;;;;6285762;28;20172;-79
2021/08/30 06:41:46;;;;;;;1.03;0.93;;;14.60;99.90;;;;;;6295994;28;20188;-79
2021/08/30 06:44:49;;;;;;;1.37;0.80;;;14.80;99.90;;;;;;6264000;28;20193;-79
2021/08/30 06:47:51;;;;;;;1.10;0.90;;;14.90;99.90;;;;;;6276963;28;20217;-79
2021/08/30 06:50:54;;;;;;;1.50;0.90;;;15.10;99.90;;;;;;6294510;28;20198;-79
2021/08/30 06:53:56;;;;;;;0.70;0.70;;;15.30;99.90;;;;;;6289244;28;20178;-79
2021/08/30 06:56:59;;;;;;;2.07;0.80;;;15.50;99.90;;;;;;6295457;28;20191;-79
2021/08/30 07:00:03;;;;;;;0.80;0.80;;;15.60;99.90;;;;;;6278904;28;20198;-79
2021/08/30 07:03:06;;;;;;;0.70;0.70;;;15.70;99.90;;;;;;6300960;28;20183;-79
2021/08/30 07:06:09;;;;;;;1.30;0.90;;;15.80;99.90;;;;;;6298461;28;20215;-79
2021/08/30 07:09:11;;;;;;;1.00;0.83;;;15.90;99.90;;;;;;6251915;28;20200;-80
2021/08/30 07:12:14;;;;;;;0.90;0.90;;;16.00;99.90;;;;;;6292938;28;20525;-79
2021/08/30 07:15:16;;;;;;;1.90;0.70;;;16.00;99.90;;;;;;6284827;28;20639;-80
2021/08/30 07:18:18;;;;;;;0.67;0.67;;;16.10;99.90;;;;;;6294133;28;20180;-79
2021/08/30 07:21:23;;;;;;;1.67;0.80;;;16.00;99.90;;;;;;6282779;28;20223;-79
2021/08/30 07:24:25;;;;;;;0.77;0.77;;;16.00;99.90;;;;;;6283857;28;20207;-79
2021/08/30 07:27:27;;;;;;;0.77;0.77;;;16.10;99.90;;;;;;6294122;28;20582;-80
2021/08/30 07:30:30;;;;;;;0.77;0.77;;;16.30;99.90;;;;;;6294135;28;20214;-79
2021/08/30 07:33:32;;;;;;;0.60;0.60;;;16.70;99.90;;;;;;6287765;28;20188;-79
2021/08/30 07:36:35;;;;;;;1.00;0.90;;;17.00;99.90;;;;;;6296880;28;20191;-80
2021/08/30 07:39:37;;;;;;;1.90;0.80;;;17.20;99.90;;;;;;6297441;28;20179;-79
2021/08/30 07:42:39;;;;;;;1.13;0.70;;;17.50;99.90;;;;;;6295100;28;20238;-80
2021/08/30 07:45:42;;;;;;;0.80;0.80;;;17.70;99.90;;;;;;6294825;28;20207;-79
2021/08/30 07:48:48;;;;;;;0.60;0.60;;;17.80;99.90;;;;;;6292603;28;20225;-79
2021/08/30 07:51:51;;;;;;;0.67;0.60;;;17.90;99.90;;;;;;6296667;28;20185;-79
2021/08/30 07:54:53;;;;;;;0.63;0.50;;;18.00;99.90;;;;;;6298286;28;20180;-79
2021/08/30 07:57:55;;;;;;;1.07;0.60;;;18.30;99.90;;;;;;6295440;28;20191;-79
2021/08/30 08:00:58;;;;;;;0.80;0.60;;;18.60;99.90;;;;;;6295485;28;20183;-80
2021/08/30 08:04:00;;;;;;;0.60;0.60;;;18.80;99.90;;;;;;6285704;28;20188;-80
2021/08/30 08:07:03;;;;;;;0.60;0.60;;;18.80;99.10;;;;;;6292767;28;20233;-79
2021/08/30 08:10:07;;;;;;;0.70;0.70;;;18.90;99.40;;;;;;6298488;28;20199;-80
2021/08/30 08:13:10;;;;;;;0.60;0.60;;;19.00;99.90;;;;;;6294050;28;20241;-79
2021/08/30 08:16:13;;;;;;;1.33;0.70;;;19.20;99.90;;;;;;6281531;28;20732;-79
2021/08/30 08:19:15;;;;;;;1.60;0.60;;;19.50;98.70;;;;;;6296050;28;20223;-79
2021/08/30 08:22:17;;;;;;;1.80;0.70;;;19.80;98.40;;;;;;6294861;28;20203;-79
2021/08/30 08:25:20;;;;;;;0.60;0.60;;;20.00;97.40;;;;;;6277943;28;20788;-79
2021/08/30 08:28:22;;;;;;;0.50;0.50;;;20.30;97.20;;;;;;6295866;28;20210;-79
2021/08/30 08:31:25;;;;;;;0.93;0.90;;;20.60;96.60;;;;;;6293475;28;20207;-79
2021/08/30 08:34:27;;;;;;;0.70;0.70;;;21.00;96.30;;;;;;6273155;28;20291;-80
2021/08/30 08:37:29;;;;;;;0.63;0.60;;;21.10;94.70;;;;;;6284176;28;20214;-79
2021/08/30 08:40:32;;;;;;;1.77;0.90;;;21.40;96.40;;;;;;6275342;28;20537;-79
2021/08/30 08:43:35;;;;;;;0.90;0.90;;;21.60;94.30;;;;;;6267764;28;20227;-80
2021/08/30 08:46:38;;;;;;;0.60;0.60;;;21.70;94.60;;;;;;6289116;28;20246;-80
2021/08/30 08:49:40;;;;;;;0.70;0.70;;;22.00;95.30;;;;;;6291946;28;20194;-79
2021/08/30 08:52:44;;;;;;;1.33;0.70;;;22.40;94.60;;;;;;6292627;28;20222;-80
2021/08/30 08:55:46;;;;;;;0.60;0.60;;;22.60;94.20;;;;;;6292344;28;20199;-80
2021/08/30 08:58:48;;;;;;;0.87;0.87;;;22.80;94.50;;;;;;6292148;28;20195;-80
2021/08/30 09:02:00;;;;;;;0.60;0.60;;;23.10;92.30;;;;;;6289150;28;20537;-80
2021/08/30 09:05:06;;;;;;;1.17;0.67;;;23.40;90.10;;;;;;6295461;28;20229;-80
2021/08/30 09:08:28;;;;;;;2.87;0.70;;;23.70;90.60;;;;;;6292415;28;20218;-80
2021/08/30 09:11:43;;;;;;;0.97;0.80;;;23.90;89.70;;;;;;6291621;28;20768;-80
2021/08/30 09:14:47;;;;;;;0.70;0.70;;;24.00;90.20;;;;;;6280608;28;20220;-80
2021/08/30 09:17:54;;;;;;;0.90;0.80;;;24.20;84.80;;;;;;6256919;28;20267;-79
2021/08/30 09:21:09;;;;;;;0.80;0.80;;;24.40;82.50;;;;;;6241437;28;20681;-80
2021/08/30 09:24:19;;;;;;;0.70;0.70;;;24.50;81.00;;;;;;6256848;28;20228;-80
2021/08/30 09:27:21;;;;;;;1.27;0.60;;;24.70;81.70;;;;;;6256233;28;20216;-80
2021/08/30 09:30:26;;;;;;;0.70;0.70;;;24.80;82.30;;;;;;6252766;28;20247;-79
2021/08/30 09:33:28;;;;;;;0.70;0.70;;;24.90;78.70;;;;;;6273063;28;20196;-79
2021/08/30 09:36:41;;;;;;;0.77;0.70;;;24.20;75.20;;;;;;6290793;28;20650;-79
2021/08/30 09:39:48;;;;;;;0.90;0.80;;;23.40;80.90;;;;;;6264885;28;20219;-80
2021/08/30 09:42:54;;;;;;;0.70;0.70;;;23.00;83.30;;;;;;6281562;28;20202;-80
2021/08/30 09:46:00;;;;;;;0.70;0.70;;;22.50;84.70;;;;;;6279401;28;20269;-79
2021/08/30 09:49:07;;;;;;;2.23;0.70;;;22.20;87.00;;;;;;6244372;28;20195;-79
2021/08/30 09:52:10;;;;;;;1.33;0.77;;;21.90;90.10;;;;;;6281228;28;20214;-79
2021/08/30 09:55:12;;;;;;;2.23;0.83;;;21.90;90.90;;;;;;6278740;28;20210;-79
2021/08/30 09:58:17;;;;;;;0.77;0.60;;;22.00;90.10;;;;;;6279837;28;20226;-79
2021/08/30 10:01:19;;;;;;;0.80;0.80;;;21.80;90.00;;;;;;6276977;28;20299;-79
2021/08/30 10:04:25;;;;;;;0.60;0.60;;;21.60;89.50;;;;;;6256749;28;20200;-79
2021/08/30 10:07:33;;;;;;;0.93;0.73;;;21.40;90.50;;;;;;6270942;28;20235;-79
2021/08/30 10:10:35;;;;;;;2.30;1.07;;;21.30;91.20;;;;;;6244563;28;20201;-79
2021/08/30 10:13:40;;;;;;;0.70;0.70;;;21.30;91.60;;;;;;6240673;28;20195;-79
2021/08/30 10:16:43;;;;;;;0.60;0.60;;;21.40;90.30;;;;;;6267689;28;20291;-79
2021/08/30 10:19:57;;;;;;;0.60;0.60;;;21.80;86.70;;;;;;6267860;28;20199;-79
2021/08/30 10:23:05;;;;;;;0.83;0.70;;;22.20;85.50;;;;;;6261571;28;20711;-79
2021/08/30 10:26:11;;;;;;;0.50;0.50;;;22.20;83.60;;;;;;6266786;28;20624;-79
2021/08/30 10:29:16;;;;;;;0.60;0.60;;;22.20;84.00;;;;;;6286154;28;20202;-79
2021/08/30 10:32:25;;;;;;;0.60;0.60;;;22.10;84.70;;;;;;6253041;28;20319;-79
2021/08/30 10:35:35;;;;;;;0.80;0.63;;;22.10;87.60;;;;;;6278951;28;20188;-79
2021/08/30 10:38:37;;;;;;;0.93;0.50;;;22.00;86.00;;;;;;6261206;28;20208;-79
2021/08/30 10:41:44;;;;;;;0.90;0.57;;;21.90;85.70;;;;;;6283009;28;20615;-78
2021/08/30 10:45:03;;;;;;;2.47;1.03;;;21.80;87.20;;;;;;6269169;28;20600;-79
2021/08/30 10:48:08;;;;;;;0.87;0.87;;;21.80;89.50;;;;;;6281127;28;20216;-79
2021/08/30 10:51:16;;;;;;;0.50;0.50;;;22.40;87.30;;;;;;6242184;28;20193;-79
2021/08/30 10:54:19;;;;;;;0.87;0.60;;;23.20;83.00;;;;;;6260222;28;20196;-79
2021/08/30 10:57:36;;;;;;;0.50;0.50;;;24.00;79.80;;;;;;6275694;28;20223;-80
2021/08/30 11:00:39;;;;;;;0.60;0.60;;;24.50;72.80;;;;;;6258474;28;20276;-79
2021/08/30 11:03:41;;;;;;;0.70;0.70;;;24.70;74.60;;;;;;6271014;28;20602;-80
2021/08/30 11:06:44;;;;;;;0.70;0.70;;;24.90;71.10;;;;;;6278538;28;20204;-79
2021/08/30 11:09:48;;;;;;;0.73;0.73;;;24.70;68.70;;;;;;6262920;28;20439;-79
2021/08/30 11:12:52;;;;;;;0.43;0.43;;;24.60;70.70;;;;;;6251374;28;20200;-79
2021/08/30 11:15:54;;;;;;;0.60;0.60;;;24.70;69.70;;;;;;6247339;28;20617;-79
2021/08/30 11:18:58;;;;;;;0.90;0.60;;;25.00;68.90;;;;;;6240379;28;20203;-79
2021/08/30 11:22:02;;;;;;;0.50;0.50;;;25.40;66.00;;;;;;6268969;28;20588;-79
2021/08/30 11:25:05;;;;;;;0.65;0.63;;;25.40;62.10;;;;;;6275482;28;20191;-80
2021/08/30 11:28:16;;;;;;;0.60;0.60;;;25.50;59.70;;;;;;6277891;28;20203;-80
2021/08/30 11:31:23;;;;;;;0.57;0.57;;;25.50;61.90;;;;;;6271408;28;20219;-80
2021/08/30 11:34:32;;;;;;;0.60;0.60;;;25.50;62.90;;;;;;6266741;28;20231;-80
2021/08/30 11:37:36;;;;;;;3.03;0.60;;;25.60;62.30;;;;;;6279188;28;20203;-80
2021/08/30 11:40:38;;;;;;;1.23;0.70;;;26.00;66.40;;;;;;6263748;28;20206;-80
2021/08/30 11:43:41;;;;;;;1.55;0.50;;;26.40;65.80;;;;;;6254977;28;20200;-80
2021/08/30 11:46:51;;;;;;;0.60;0.60;;;26.70;65.80;;;;;;6256865;28;20357;-80
2021/08/30 11:49:56;;;;;;;0.70;0.70;;;26.70;59.60;;;;;;6279955;28;20298;-80
2021/08/30 11:52:59;;;;;;;1.73;0.60;;;26.60;59.00;;;;;;6259103;28;20663;-80
2021/08/30 11:56:02;;;;;;;0.60;0.60;;;26.60;58.60;;;;;;6254971;28;20188;-80
2021/08/30 11:59:05;;;;;;;0.70;0.70;;;26.60;58.00;;;;;;6279540;28;20187;-80
2021/08/30 12:02:11;;;;;;;0.73;0.73;;;26.10;62.70;;;;;;6278449;28;20206;-80
2021/08/30 12:05:13;;;;;;;0.50;0.50;;;26.30;65.80;;;;;;6255452;28;20267;-81
2021/08/30 12:08:19;;;;;;;0.65;0.65;;;26.30;58.60;;;;;;6274014;28;20337;-79
2021/08/30 12:11:22;;;;;;;0.70;0.70;;;26.10;57.80;;;;;;6248982;28;20255;-79
2021/08/30 12:14:25;;;;;;;0.63;0.63;;;26.00;59.60;;;;;;6242785;28;20635;-81
2021/08/30 12:17:31;;;;;;;0.50;0.50;;;26.00;58.50;;;;;;6263553;28;20211;-80
2021/08/30 12:20:41;;;;;;;0.93;0.60;;;25.60;57.10;;;;;;6277001;28;20623;-80
2021/08/30 12:23:50;;;;;;;1.20;0.60;;;25.10;58.70;;;;;;6279611;28;20184;-80
2021/08/30 12:26:52;;;;;;;1.83;0.90;;;24.90;62.50;;;;;;6272090;28;20224;-79
2021/08/30 12:29:54;;;;;;;0.50;0.50;;;24.80;67.10;;;;;;6249925;28;20200;-79
2021/08/30 12:33:03;;;;;;;3.20;0.73;;;25.30;69.10;;;;;;6252144;28;20199;-80
2021/08/30 12:36:06;;;;;;;1.05;0.70;;;25.60;66.70;;;;;;6277920;28;20655;-80
2021/08/30 12:39:08;;;;;;;0.63;0.63;;;25.60;63.00;;;;;;6258853;28;20196;-80
2021/08/30 12:42:10;;;;;;;1.30;0.65;;;25.50;62.40;;;;;;6270716;28;20204;-79
2021/08/30 12:45:13;;;;;;;0.80;0.68;;;25.40;62.80;;;;;;6264551;28;20648;-79
2021/08/30 12:48:18;;;;;;;0.43;0.43;;;25.20;62.60;;;;;;6271949;28;20668;-79
2021/08/30 12:51:21;;;;;;;1.10;0.60;;;25.00;65.40;;;;;;6263421;28;20278;-80
2021/08/30 12:54:27;;;;;;;0.80;0.80;;;24.80;68.30;;;;;;6266395;28;20180;-79
2021/08/30 12:57:29;;;;;;;0.50;0.50;;;24.70;66.20;;;;;;6272659;28;20200;-80
2021/08/30 13:00:32;;;;;;;1.92;0.90;;;24.50;65.70;;;;;;6288091;28;20250;-80
2021/08/30 13:03:34;;;;;;;0.70;0.70;;;24.40;68.60;;;;;;6254452;28;20188;-79
2021/08/30 13:06:37;;;;;;;0.60;0.60;;;24.20;70.20;;;;;;6291130;28;20262;-80
2021/08/30 13:09:39;;;;;;;1.07;0.57;;;23.90;71.20;;;;;;6281873;28;20219;-79
2021/08/30 13:12:43;;;;;;;0.50;0.50;;;23.80;72.80;;;;;;6300477;28;20200;-80
2021/08/30 13:15:48;;;;;;;0.50;0.50;;;23.70;74.10;;;;;;6286800;28;20201;-80
2021/08/30 13:18:51;;;;;;;2.20;0.63;;;23.60;75.50;;;;;;6297937;28;20198;-80
2021/08/30 13:21:53;;;;;;;1.40;0.80;;;23.40;77.40;;;;;;6291539;28;20235;-80
2021/08/30 13:24:56;;;;;;;0.80;0.50;;;23.10;79.70;;;;;;6271066;28;20188;-80
2021/08/30 13:27:58;;;;;;;1.27;1.10;;;22.90;81.00;;;;;;6294058;28;20207;-80
2021/08/30 13:31:00;;;;;;;1.73;0.97;;;22.70;81.30;;;;;;6271237;28;20220;-80
2021/08/30 13:34:03;;;;;;;1.13;0.77;;;22.60;82.50;;;;;;6280249;28;20196;-79
2021/08/30 13:37:05;;;;;;;2.50;0.80;;;22.50;84.60;;;;;;6280551;28;20218;-79
2021/08/30 13:40:10;;;;;;;1.60;0.90;;;22.30;86.70;;;;;;6276927;28;20203;-79
2021/08/30 13:43:12;;;;;;;1.00;0.70;;;22.20;87.80;;;;;;6264704;28;20196;-79
2021/08/30 13:46:14;;;;;;;1.73;0.77;;;22.00;88.70;;;;;;6271520;28;20198;-80
2021/08/30 13:49:16;;;;;;;1.10;0.70;;;21.90;89.00;;;;;;6288533;28;20192;-80
2021/08/30 13:52:19;;;;;;;0.87;0.80;;;21.50;85.10;;;;;;6271233;28;20195;-80
2021/08/30 13:55:22;;;;;;;0.70;0.70;;;21.20;85.20;;;;;;6297526;28;20648;-79
2021/08/30 13:58:25;;;;;;;1.13;0.73;;;20.80;84.20;;;;;;6297578;28;20187;-80
2021/08/30 14:01:39;;;;;;;0.70;0.70;;;20.40;85.70;;;;;;6296126;28;20575;-80
2021/08/30 14:04:42;;;;;;;1.73;0.80;;;20.30;86.20;;;;;;6279116;28;20246;-79
2021/08/30 14:07:44;;;;;;;0.83;0.77;;;20.30;87.40;;;;;;6283099;28;20563;-79
2021/08/30 14:10:47;;;;;;;6.43;2.23;;;20.20;87.80;;;;;;6294340;28;20205;-80
2021/08/30 14:13:49;;;;;;;1.73;1.00;;;20.20;88.90;;;;;;6291854;28;20467;-79
2021/08/30 14:17:11;;;;;;;1.13;1.03;;;20.10;89.10;;;;;;6274384;28;20250;-79
2021/08/30 14:20:15;;;;;;;1.17;0.90;;;20.10;88.90;;;;;;6292663;28;20233;-79
2021/08/30 14:23:18;;;;;;;1.70;0.70;;;20.10;89.80;;;;;;6284988;28;20795;-80
2021/08/30 14:26:20;;;;;;;0.67;0.50;;;20.40;90.20;;;;;;6264374;28;20281;-80
2021/08/30 14:29:23;;;;;;;1.80;1.23;;;21.50;84.40;;;;;;6278855;28;20208;-80
2021/08/30 14:32:25;;;;;;;0.60;0.60;;;21.90;82.20;;;;;;6263488;28;20270;-79
2021/08/30 14:35:28;;;;;;;1.00;0.80;;;21.80;81.00;;;;;;6295292;28;20667;-79
2021/08/30 14:38:30;;;;;;;1.30;0.80;;;21.50;81.10;;;;;;6264014;28;20224;-79
2021/08/30 14:41:33;;;;;;;1.77;0.63;;;21.30;83.40;;;;;;6263860;28;20192;-79
2021/08/30 14:44:36;;;;;;;0.63;0.63;;;21.10;84.20;;;;;;6273866;28;20210;-79
2021/08/30 14:47:39;;;;;;;0.70;0.70;;;21.00;84.90;;;;;;6267643;28;20242;-79
2021/08/30 14:50:44;;;;;;;1.13;0.90;;;21.00;86.30;;;;;;6261310;28;20265;-79
2021/08/30 14:53:47;;;;;;;1.37;0.73;;;21.80;86.10;;;;;;6288520;28;20191;-79
2021/08/30 14:56:49;;;;;;;0.90;0.90;;;22.90;82.60;;;;;;6279929;28;20582;-80
2021/08/30 14:59:51;;;;;;;1.27;0.73;;;24.30;78.60;;;;;;6264612;28;20196;-79
2021/08/30 15:02:54;;;;;;;0.97;0.87;;;25.10;74.10;;;;;;6291089;28;20199;-79
2021/08/30 15:05:57;;;;;;;0.90;0.70;;;25.20;72.30;;;;;;6277584;28;20200;-79
2021/08/30 15:09:00;;;;;;;1.93;0.70;;;25.40;71.10;;;;;;6294147;28;20211;-79
2021/08/30 15:12:03;;;;;;;1.67;0.70;;;25.10;72.50;;;;;;6273498;28;20211;-79
2021/08/30 15:15:08;;;;;;;3.60;0.80;;;24.30;75.00;;;;;;6286894;28;20218;-79
2021/08/30 15:18:13;;;;;;;0.93;0.70;;;23.60;80.70;;;;;;6299241;28;20194;-79
2021/08/30 15:21:16;;;;;;;1.97;0.87;;;23.00;84.60;;;;;;6255748;28;20228;-79
2021/08/30 15:24:19;;;;;;;0.77;0.77;;;22.50;87.90;;;;;;6307254;28;20206;-79
2021/08/30 15:27:21;;;;;;;1.23;0.70;;;22.10;89.80;;;;;;6278929;28;20651;-79
2021/08/30 15:30:24;;;;;;;2.20;0.70;;;21.90;91.00;;;;;;6282002;28;20622;-79
2021/08/30 15:33:26;;;;;;;0.80;0.70;;;21.70;91.60;;;;;;6281683;28;20199;-80
2021/08/30 15:36:29;;;;;;;0.70;0.70;;;21.60;91.40;;;;;;6274078;28;20715;-79
2021/08/30 15:39:32;;;;;;;1.30;0.70;;;21.50;91.50;;;;;;6263972;28;20191;-78
2021/08/30 15:42:35;;;;;;;1.93;1.10;;;21.40;91.40;;;;;;6284981;28;20263;-79
2021/08/30 15:45:38;;;;;;;0.83;0.70;;;21.30;91.90;;;;;;6259486;28;20200;-79
2021/08/30 15:48:41;;;;;;;0.50;0.50;;;21.20;91.50;;;;;;6254050;28;20343;-79
2021/08/30 15:51:43;;;;;;;0.50;0.50;;;21.10;91.90;;;;;;6267685;28;20288;-79
2021/08/30 15:54:45;;;;;;;1.43;0.67;;;21.00;91.20;;;;;;6262957;28;20678;-79
2021/08/30 15:57:48;;;;;;;2.43;0.80;;;20.90;90.40;;;;;;6276431;28;20206;-79
2021/08/30 16:00:50;;;;;;;0.90;0.80;;;20.90;90.00;;;;;;6279247;28;20601;-79
2021/08/30 16:03:53;;;;;;;1.97;0.60;;;20.80;91.00;;;;;;6275476;28;20233;-79